Time;durP1;ratioP1;P1;durP2;ratioP2;P2;SDS_P1;SDS_P2;PMS_P1;PMS_P2;Temp;Humidity;BMP_temperature;BMP_pressure;BME280_temperature;BME280_humidity;BME280_pressure;Samples;Min_cycle;Max_cycle;Signal;HPM_P1;HPM_P2
2024/01/22 00:01:44;;;;;;;17.65;7.00;;;;;;;;;;5131062;27;20058;-65
2024/01/22 00:04:10;;;;;;;13.23;6.68;;;;;;;;;;5131531;27;20051;-65
2024/01/22 00:06:38;;;;;;;13.98;6.95;;;;;;;;;;5132225;27;20072;-65
2024/01/22 00:09:05;;;;;;;12.68;6.70;;;;;;;;;;5113942;27;20052;-65
2024/01/22 00:11:32;;;;;;;11.18;5.93;;;;;;;;;;5110474;28;20056;-68
2024/01/22 00:13:59;;;;;;;10.57;6.20;;;;;;;;;;5110206;28;20436;-65
2024/01/22 00:16:25;;;;;;;15.48;6.40;;;;;;;;;;5110206;28;20093;-65
2024/01/22 00:18:52;;;;;;;14.60;6.78;;;;;;;;;;5092075;28;20047;-65
2024/01/22 00:21:19;;;;;;;13.90;7.15;;;;;;;;;;5110317;28;20461;-65
2024/01/22 00:23:46;;;;;;;12.95;6.20;;;;;;;;;;5110339;28;20079;-65
2024/01/22 00:26:14;;;;;;;11.80;5.40;;;;;;;;;;5109964;28;20055;-65
2024/01/22 00:28:41;;;;;;;14.57;6.45;;;;;;;;;;5110150;28;20536;-65
2024/01/22 00:31:08;;;;;;;12.13;5.97;;;;;;;;;;5110032;28;20064;-65
2024/01/22 00:33:34;;;;;;;13.05;6.72;;;;;;;;;;5109656;28;20048;-65
2024/01/22 00:36:01;;;;;;;17.75;6.10;;;;;;;;;;5109395;28;20047;-65
2024/01/22 00:38:27;;;;;;;11.07;5.85;;;;;;;;;;5109988;28;20065;-65
2024/01/22 00:40:54;;;;;;;10.90;5.40;;;;;;;;;;5110583;28;20554;-65
2024/01/22 00:43:20;;;;;;;17.27;6.40;;;;;;;;;;5111442;28;20051;-65
2024/01/22 00:45:47;;;;;;;11.98;6.55;;;;;;;;;;5111321;28;20127;-65
2024/01/22 00:48:13;;;;;;;13.38;6.68;;;;;;;;;;5108333;28;20448;-64
2024/01/22 00:50:40;;;;;;;13.02;6.75;;;;;;;;;;5111947;27;20054;-65
2024/01/22 00:53:06;;;;;;;14.05;6.80;;;;;;;;;;5130834;27;20054;-64
2024/01/22 00:55:32;;;;;;;13.70;6.15;;;;;;;;;;5130721;27;20061;-65
2024/01/22 00:57:59;;;;;;;10.93;5.75;;;;;;;;;;5129976;27;20095;-65
2024/01/22 01:00:26;;;;;;;10.65;5.38;;;;;;;;;;5130009;27;20092;-65
2024/01/22 01:02:53;;;;;;;10.70;5.72;;;;;;;;;;5130089;27;20047;-65
2024/01/22 01:05:20;;;;;;;13.90;5.43;;;;;;;;;;5129889;27;20051;-65
2024/01/22 01:07:47;;;;;;;11.15;5.95;;;;;;;;;;5123685;27;20519;-65
2024/01/22 01:10:13;;;;;;;12.88;5.95;;;;;;;;;;5109196;28;20048;-65
2024/01/22 01:12:40;;;;;;;10.38;5.45;;;;;;;;;;5108285;28;20058;-65
2024/01/22 01:15:06;;;;;;;12.82;5.47;;;;;;;;;;5109459;28;20048;-65
2024/01/22 01:17:33;;;;;;;12.18;5.97;;;;;;;;;;5109257;28;20058;-65
2024/01/22 01:19:59;;;;;;;10.80;6.00;;;;;;;;;;5109027;28;20051;-65
2024/01/22 01:22:26;;;;;;;15.75;6.25;;;;;;;;;;5108915;28;20480;-65
2024/01/22 01:24:52;;;;;;;13.68;6.25;;;;;;;;;;5109292;28;20062;-65
2024/01/22 01:27:19;;;;;;;15.77;6.15;;;;;;;;;;5109169;28;20048;-65
2024/01/22 01:29:45;;;;;;;14.38;6.05;;;;;;;;;;5109115;28;20438;-65
2024/01/22 01:32:12;;;;;;;14.45;6.93;;;;;;;;;;5109236;28;20146;-65
2024/01/22 01:34:38;;;;;;;9.32;6.22;;;;;;;;;;5108733;28;20044;-65
2024/01/22 01:37:05;;;;;;;13.98;5.95;;;;;;;;;;5107476;28;20078;-65
2024/01/22 01:39:31;;;;;;;10.02;5.97;;;;;;;;;;5108758;28;20079;-65
2024/01/22 01:41:57;;;;;;;9.00;4.88;;;;;;;;;;5108836;28;20488;-65
2024/01/22 01:44:46;;;;;;;12.50;5.20;;;;;;;;;;5108723;28;20055;-65
2024/01/22 01:47:12;;;;;;;13.38;6.28;;;;;;;;;;5090433;28;20051;-65
2024/01/22 01:49:39;;;;;;;10.23;5.65;;;;;;;;;;5090560;28;20713;-65
2024/01/22 01:52:05;;;;;;;12.10;5.63;;;;;;;;;;5125045;27;20127;-65
2024/01/22 01:54:32;;;;;;;10.27;5.45;;;;;;;;;;5128750;27;20063;-65
2024/01/22 01:56:58;;;;;;;10.93;4.85;;;;;;;;;;5129233;27;20070;-65
2024/01/22 01:59:25;;;;;;;8.90;5.25;;;;;;;;;;5129031;27;20051;-64
2024/01/22 02:01:51;;;;;;;13.07;5.38;;;;;;;;;;5129031;27;20062;-65
2024/01/22 02:04:18;;;;;;;8.23;4.65;;;;;;;;;;5110800;27;20055;-65
2024/01/22 02:06:44;;;;;;;7.65;5.38;;;;;;;;;;5128883;27;20600;-65
2024/01/22 02:09:11;;;;;;;7.50;4.68;;;;;;;;;;5110605;27;20047;-65
2024/01/22 02:11:37;;;;;;;10.07;5.18;;;;;;;;;;5107448;28;20077;-65
2024/01/22 02:14:04;;;;;;;7.65;4.45;;;;;;;;;;5109201;28;20055;-66
2024/01/22 02:16:30;;;;;;;10.23;5.15;;;;;;;;;;5109025;28;20779;-65
2024/01/22 02:18:57;;;;;;;10.55;4.88;;;;;;;;;;5090449;28;20055;-65
2024/01/22 02:21:23;;;;;;;10.88;5.18;;;;;;;;;;5108285;28;20047;-65
2024/01/22 02:23:50;;;;;;;8.90;4.35;;;;;;;;;;5108215;28;20065;-65
2024/01/22 02:26:16;;;;;;;8.23;4.57;;;;;;;;;;5108529;28;20357;-65
2024/01/22 02:28:43;;;;;;;9.20;5.43;;;;;;;;;;5108334;28;20060;-65
2024/01/22 02:31:10;;;;;;;11.35;5.28;;;;;;;;;;5106940;28;20105;-66
2024/01/22 02:33:36;;;;;;;9.35;4.93;;;;;;;;;;5107853;28;20052;-65
2024/01/22 02:36:04;;;;;;;8.15;4.25;;;;;;;;;;5108224;28;20053;-65
2024/01/22 02:38:30;;;;;;;9.07;4.65;;;;;;;;;;5090120;28;20122;-65
2024/01/22 02:40:57;;;;;;;10.25;5.28;;;;;;;;;;5108890;28;20663;-65
2024/01/22 02:43:23;;;;;;;9.25;4.35;;;;;;;;;;5107947;28;20618;-65
2024/01/22 02:45:49;;;;;;;7.70;4.60;;;;;;;;;;5108134;28;20404;-65
2024/01/22 02:48:16;;;;;;;7.82;4.95;;;;;;;;;;5106800;28;20439;-65
2024/01/22 02:50:42;;;;;;;7.55;4.53;;;;;;;;;;5113492;28;20055;-66
2024/01/22 02:53:09;;;;;;;8.80;4.45;;;;;;;;;;5128810;28;20059;-65
2024/01/22 02:55:36;;;;;;;11.65;4.13;;;;;;;;;;5128225;28;20071;-65
2024/01/22 02:58:02;;;;;;;7.78;4.75;;;;;;;;;;5130333;27;20089;-65
2024/01/22 03:00:29;;;;;;;8.27;4.47;;;;;;;;;;5132332;27;20100;-65
2024/01/22 03:02:55;;;;;;;8.85;4.57;;;;;;;;;;5113566;27;20130;-65
2024/01/22 03:05:23;;;;;;;8.40;4.35;;;;;;;;;;5132633;27;20674;-65
2024/01/22 03:07:49;;;;;;;8.73;3.90;;;;;;;;;;5126119;27;20495;-65
2024/01/22 03:10:15;;;;;;;7.65;4.43;;;;;;;;;;5111578;28;20048;-65
2024/01/22 03:12:42;;;;;;;8.48;4.13;;;;;;;;;;5111692;28;20477;-65
2024/01/22 03:15:09;;;;;;;8.02;4.28;;;;;;;;;;5093688;28;20074;-65
2024/01/22 03:17:35;;;;;;;6.40;4.13;;;;;;;;;;5111491;28;20513;-65
2024/01/22 03:20:02;;;;;;;10.25;4.10;;;;;;;;;;5111419;28;20166;-65
2024/01/22 03:22:28;;;;;;;12.13;5.22;;;;;;;;;;5111375;28;20044;-65
2024/01/22 03:24:55;;;;;;;9.15;4.63;;;;;;;;;;5111150;28;20108;-65
2024/01/22 03:27:21;;;;;;;7.28;4.40;;;;;;;;;;5111498;28;20855;-65
2024/01/22 03:29:47;;;;;;;10.63;4.45;;;;;;;;;;5111655;28;20047;-65
2024/01/22 03:32:14;;;;;;;11.82;4.75;;;;;;;;;;5112667;28;20055;-66
2024/01/22 03:34:40;;;;;;;8.00;4.20;;;;;;;;;;5111010;28;20055;-65
2024/01/22 03:37:07;;;;;;;7.72;4.13;;;;;;;;;;5111057;28;20058;-65
2024/01/22 03:39:33;;;;;;;10.88;4.68;;;;;;;;;;5111038;28;20108;-65
2024/01/22 03:42:00;;;;;;;10.45;4.97;;;;;;;;;;5110924;28;20046;-65
2024/01/22 03:44:26;;;;;;;10.30;4.45;;;;;;;;;;5109588;28;20621;-65
2024/01/22 03:46:53;;;;;;;7.55;4.45;;;;;;;;;;5110964;28;20044;-65
2024/01/22 03:49:19;;;;;;;8.73;4.85;;;;;;;;;;5111035;28;20457;-65
2024/01/22 03:51:46;;;;;;;7.85;3.92;;;;;;;;;;5124793;27;20070;-64
2024/01/22 03:54:13;;;;;;;12.13;4.90;;;;;;;;;;5131746;27;20047;-64
2024/01/22 03:56:39;;;;;;;10.05;4.45;;;;;;;;;;5131397;27;20051;-64
2024/01/22 03:59:06;;;;;;;7.65;4.75;;;;;;;;;;5131529;27;20399;-65
2024/01/22 04:01:32;;;;;;;14.32;4.60;;;;;;;;;;5131072;27;20043;-64
2024/01/22 04:03:58;;;;;;;16.95;4.40;;;;;;;;;;5131096;27;20043;-64
2024/01/22 04:06:25;;;;;;;7.63;4.40;;;;;;;;;;5131197;27;20058;-65
2024/01/22 04:08:51;;;;;;;7.45;3.90;;;;;;;;;;5114919;27;20126;-65
2024/01/22 04:11:18;;;;;;;8.52;4.53;;;;;;;;;;5109992;28;20055;-65
2024/01/22 04:13:44;;;;;;;7.78;3.88;;;;;;;;;;5110423;28;20067;-65
2024/01/22 04:16:12;;;;;;;6.18;3.97;;;;;;;;;;5110383;28;20040;-65
2024/01/22 04:18:39;;;;;;;7.60;3.65;;;;;;;;;;5110107;28;20932;-65
2024/01/22 04:21:06;;;;;;;5.35;3.50;;;;;;;;;;5110250;28;20130;-65
2024/01/22 04:23:34;;;;;;;6.10;3.50;;;;;;;;;;5108911;28;20133;-65
2024/01/22 04:26:01;;;;;;;7.78;3.95;;;;;;;;;;5110265;28;20079;-65
2024/01/22 04:28:28;;;;;;;8.50;3.72;;;;;;;;;;5110152;28;20051;-65
2024/01/22 04:30:54;;;;;;;6.90;3.20;;;;;;;;;;5110034;28;20047;-65
2024/01/22 04:33:21;;;;;;;9.68;3.50;;;;;;;;;;5111621;28;20116;-70
2024/01/22 04:35:49;;;;;;;5.43;3.25;;;;;;;;;;5112820;28;20044;-65
2024/01/22 04:38:17;;;;;;;5.20;2.67;;;;;;;;;;5111265;28;20044;-65
2024/01/22 04:40:43;;;;;;;5.75;3.20;;;;;;;;;;5092311;28;20552;-65
2024/01/22 04:43:09;;;;;;;5.30;2.97;;;;;;;;;;5110268;28;20047;-65
2024/01/22 04:45:36;;;;;;;12.27;3.20;;;;;;;;;;5109768;28;20089;-65
2024/01/22 04:48:04;;;;;;;7.28;3.20;;;;;;;;;;5109916;28;20056;-65
2024/01/22 04:50:30;;;;;;;6.15;2.72;;;;;;;;;;5094447;27;20049;-65
2024/01/22 04:52:57;;;;;;;3.80;2.30;;;;;;;;;;5111608;27;20050;-66
2024/01/22 04:55:23;;;;;;;9.13;3.20;;;;;;;;;;5130282;27;20079;-65
2024/01/22 04:57:54;;;;;;;8.77;3.05;;;;;;;;;;5130196;27;20050;-65
2024/01/22 05:00:20;;;;;;;7.07;3.13;;;;;;;;;;5129773;27;20290;-65
2024/01/22 05:02:47;;;;;;;4.72;3.22;;;;;;;;;;5130131;27;20134;-65
2024/01/22 05:05:13;;;;;;;10.55;3.28;;;;;;;;;;5130008;27;20054;-65
2024/01/22 05:07:40;;;;;;;6.20;3.13;;;;;;;;;;5124568;27;20135;-65
2024/01/22 05:10:11;;;;;;;5.63;2.90;;;;;;;;;;5109320;28;20055;-66
2024/01/22 05:12:37;;;;;;;3.22;2.38;;;;;;;;;;5109062;28;20048;-65
2024/01/22 05:15:04;;;;;;;8.63;2.97;;;;;;;;;;5109458;28;20056;-65
2024/01/22 05:17:32;;;;;;;9.10;2.20;;;;;;;;;;5109507;28;20044;-65
2024/01/22 05:19:59;;;;;;;4.82;2.33;;;;;;;;;;5109110;28;20044;-65
2024/01/22 05:22:25;;;;;;;5.28;2.25;;;;;;;;;;5090710;28;20043;-66
2024/01/22 05:24:53;;;;;;;6.10;2.70;;;;;;;;;;5109179;28;20062;-65
2024/01/22 05:27:19;;;;;;;5.68;2.40;;;;;;;;;;5109501;28;20058;-65
2024/01/22 05:29:46;;;;;;;7.95;2.00;;;;;;;;;;5107830;28;20755;-65
2024/01/22 05:32:12;;;;;;;4.90;2.05;;;;;;;;;;5107750;28;20047;-65
2024/01/22 05:34:39;;;;;;;9.13;2.25;;;;;;;;;;5109222;28;20160;-65
2024/01/22 05:37:05;;;;;;;6.13;2.47;;;;;;;;;;5109010;28;20484;-67
2024/01/22 05:39:32;;;;;;;3.88;2.00;;;;;;;;;;5111024;28;20539;-66
2024/01/22 05:41:58;;;;;;;5.18;1.88;;;;;;;;;;5110979;28;20097;-66
2024/01/22 05:44:25;;;;;;;11.65;2.78;;;;;;;;;;5107393;28;20542;-65
2024/01/22 05:46:52;;;;;;;3.53;1.92;;;;;;;;;;5109241;28;20039;-66
2024/01/22 05:49:18;;;;;;;3.17;1.88;;;;;;;;;;5108925;28;20055;-66
2024/01/22 05:51:45;;;;;;;10.93;3.33;;;;;;;;;;5122585;27;20047;-66
2024/01/22 05:54:12;;;;;;;4.95;2.55;;;;;;;;;;5129197;27;20077;-66
2024/01/22 05:56:39;;;;;;;5.95;2.35;;;;;;;;;;5128763;27;20039;-66
2024/01/22 05:59:05;;;;;;;8.85;2.90;;;;;;;;;;5129266;27;20551;-66
2024/01/22 06:01:32;;;;;;;4.35;2.20;;;;;;;;;;5128864;27;20138;-66
2024/01/22 06:03:59;;;;;;;4.68;1.75;;;;;;;;;;5130185;27;20051;-66
2024/01/22 06:06:26;;;;;;;9.25;2.53;;;;;;;;;;5131735;27;20399;-66
2024/01/22 06:08:53;;;;;;;4.45;2.15;;;;;;;;;;5113925;28;20545;-66
2024/01/22 06:11:19;;;;;;;3.85;1.75;;;;;;;;;;5108618;28;20047;-66
2024/01/22 06:13:46;;;;;;;4.63;2.30;;;;;;;;;;5108613;28;20043;-65
2024/01/22 06:16:26;;;;;;;5.93;2.45;;;;;;;;;;5108255;28;20048;-65
2024/01/22 06:18:53;;;;;;;5.75;2.22;;;;;;;;;;5108232;28;20117;-66
2024/01/22 06:21:19;;;;;;;3.80;2.17;;;;;;;;;;5108235;28;20052;-66
2024/01/22 06:23:46;;;;;;;5.95;2.38;;;;;;;;;;5108255;28;20043;-65
2024/01/22 06:26:13;;;;;;;9.07;2.85;;;;;;;;;;5106802;28;20130;-65
2024/01/22 06:28:40;;;;;;;5.82;1.90;;;;;;;;;;5108220;28;20675;-67
2024/01/22 06:31:06;;;;;;;7.55;1.95;;;;;;;;;;5111082;28;20051;-69
2024/01/22 06:33:32;;;;;;;4.38;1.85;;;;;;;;;;5111968;28;20155;-67
2024/01/22 06:35:59;;;;;;;4.53;2.33;;;;;;;;;;5112780;28;20561;-67
2024/01/22 06:38:26;;;;;;;7.30;2.60;;;;;;;;;;5112588;28;20051;-65
2024/01/22 06:40:53;;;;;;;5.32;2.20;;;;;;;;;;5111341;28;20055;-65
2024/01/22 06:43:20;;;;;;;4.68;1.80;;;;;;;;;;5112097;28;20142;-67
2024/01/22 06:45:46;;;;;;;4.50;1.90;;;;;;;;;;5093930;28;20062;-65
2024/01/22 06:48:13;;;;;;;3.53;2.05;;;;;;;;;;5112093;28;20048;-65
2024/01/22 06:50:39;;;;;;;3.72;1.88;;;;;;;;;;5116413;27;20472;-67
2024/01/22 06:53:06;;;;;;;3.15;2.05;;;;;;;;;;5114575;27;20047;-66
2024/01/22 06:55:32;;;;;;;3.95;2.28;;;;;;;;;;5132821;27;20047;-67
2024/01/22 06:57:59;;;;;;;3.20;1.77;;;;;;;;;;5133785;27;20138;-67
2024/01/22 07:00:26;;;;;;;5.03;2.10;;;;;;;;;;5132581;27;20047;-66
2024/01/22 07:02:53;;;;;;;4.15;1.45;;;;;;;;;;5133052;27;20050;-67
2024/01/22 07:05:20;;;;;;;4.13;1.95;;;;;;;;;;5132687;27;20043;-67
2024/01/22 07:07:46;;;;;;;4.30;2.70;;;;;;;;;;5126348;27;20082;-66
2024/01/22 07:10:13;;;;;;;5.40;1.67;;;;;;;;;;5111838;28;20071;-67
2024/01/22 07:12:42;;;;;;;2.80;1.88;;;;;;;;;;5111608;28;20397;-66
2024/01/22 07:15:12;;;;;;;6.85;1.90;;;;;;;;;;5111576;28;20071;-66
2024/01/22 07:17:42;;;;;;;5.32;2.28;;;;;;;;;;5111688;28;20054;-67
2024/01/22 07:20:16;;;;;;;5.90;1.95;;;;;;;;;;5111685;28;20051;-67
2024/01/22 07:22:43;;;;;;;4.55;1.85;;;;;;;;;;5092929;28;20097;-66
2024/01/22 07:25:14;;;;;;;2.45;2.08;;;;;;;;;;5111601;28;20051;-64
2024/01/22 07:27:42;;;;;;;4.93;2.38;;;;;;;;;;5111312;28;20048;-67
2024/01/22 07:30:11;;;;;;;4.45;2.10;;;;;;;;;;5111442;28;20433;-67
2024/01/22 07:32:38;;;;;;;3.88;1.90;;;;;;;;;;5111031;28;20048;-66
2024/01/22 07:35:09;;;;;;;5.95;1.63;;;;;;;;;;5111525;28;20130;-67
2024/01/22 07:37:40;;;;;;;3.45;1.67;;;;;;;;;;5111349;28;20044;-67
2024/01/22 07:40:09;;;;;;;3.40;1.50;;;;;;;;;;5111227;28;20105;-66
2024/01/22 07:42:36;;;;;;;2.83;1.67;;;;;;;;;;5111126;28;20372;-67
2024/01/22 07:45:03;;;;;;;5.78;1.90;;;;;;;;;;5110836;28;20051;-67
2024/01/22 07:47:30;;;;;;;5.18;2.35;;;;;;;;;;5092969;28;20120;-68
2024/01/22 07:49:56;;;;;;;3.63;1.92;;;;;;;;;;5111275;28;20426;-66
2024/01/22 07:52:23;;;;;;;7.63;2.00;;;;;;;;;;5112856;27;20553;-66
2024/01/22 07:54:49;;;;;;;4.70;1.90;;;;;;;;;;5131355;27;20071;-67
2024/01/22 07:57:16;;;;;;;3.17;1.60;;;;;;;;;;5113145;27;20039;-66
2024/01/22 07:59:43;;;;;;;3.20;1.80;;;;;;;;;;5131197;27;20059;-66
2024/01/22 08:02:09;;;;;;;8.20;1.50;;;;;;;;;;5131268;27;20043;-65
2024/01/22 08:04:36;;;;;;;4.28;2.17;;;;;;;;;;5131153;27;20465;-65
2024/01/22 08:07:03;;;;;;;4.55;1.80;;;;;;;;;;5131042;27;20078;-64
2024/01/22 08:09:30;;;;;;;6.50;1.80;;;;;;;;;;5110368;28;20047;-64
2024/01/22 08:11:56;;;;;;;5.75;2.30;;;;;;;;;;5110189;28;20047;-64
2024/01/22 08:14:23;;;;;;;3.38;2.05;;;;;;;;;;5110459;28;20521;-65
2024/01/22 08:16:49;;;;;;;5.72;2.50;;;;;;;;;;5110342;28;20043;-64
2024/01/22 08:19:16;;;;;;;6.03;2.10;;;;;;;;;;5110187;28;20100;-63
2024/01/22 08:21:43;;;;;;;5.07;2.13;;;;;;;;;;5110174;28;20056;-62
2024/01/22 08:24:09;;;;;;;3.30;2.05;;;;;;;;;;5091767;28;20432;-66
2024/01/22 08:26:36;;;;;;;5.97;2.03;;;;;;;;;;5109830;28;20050;-66
2024/01/22 08:29:03;;;;;;;5.72;1.85;;;;;;;;;;5121394;27;20051;-65
2024/01/22 08:31:30;;;;;;;4.82;2.17;;;;;;;;;;5132684;27;20051;-66
2024/01/22 08:33:56;;;;;;;4.97;2.63;;;;;;;;;;5131205;27;20051;-65
2024/01/22 08:36:23;;;;;;;8.18;3.13;;;;;;;;;;5131254;27;20052;-66
2024/01/22 08:38:49;;;;;;;10.88;2.38;;;;;;;;;;5130579;27;20047;-64
2024/01/22 08:41:16;;;;;;;4.47;2.88;;;;;;;;;;5130224;27;20039;-66
2024/01/22 08:43:42;;;;;;;4.70;1.80;;;;;;;;;;5130054;27;20414;-65
2024/01/22 08:46:09;;;;;;;4.07;2.00;;;;;;;;;;5112304;27;20138;-66
2024/01/22 08:48:35;;;;;;;4.70;2.35;;;;;;;;;;5130502;27;20134;-64
2024/01/22 08:51:02;;;;;;;4.65;1.90;;;;;;;;;;5123625;27;20109;-64
2024/01/22 08:53:28;;;;;;;3.83;1.92;;;;;;;;;;5129641;27;20502;-64
2024/01/22 08:55:55;;;;;;;7.57;2.13;;;;;;;;;;5128934;27;20111;-65
2024/01/22 08:58:24;;;;;;;7.00;2.67;;;;;;;;;;5129642;27;20051;-64
2024/01/22 09:00:51;;;;;;;3.88;2.47;;;;;;;;;;5129537;27;20407;-67
2024/01/22 09:03:18;;;;;;;8.23;2.03;;;;;;;;;;5129998;27;20039;-63
2024/01/22 09:05:45;;;;;;;6.35;1.70;;;;;;;;;;5130539;27;20063;-64
2024/01/22 09:08:11;;;;;;;6.15;2.50;;;;;;;;;;5129633;27;20618;-64
2024/01/22 09:10:38;;;;;;;4.97;1.70;;;;;;;;;;5129344;27;20080;-63
2024/01/22 09:13:05;;;;;;;4.50;2.00;;;;;;;;;;5111068;27;20061;-65
2024/01/22 09:15:31;;;;;;;4.60;1.80;;;;;;;;;;5129770;27;20051;-64
2024/01/22 09:17:58;;;;;;;2.75;1.95;;;;;;;;;;5129685;27;20496;-64
2024/01/22 09:20:24;;;;;;;3.28;2.13;;;;;;;;;;5129256;27;20043;-65
2024/01/22 09:22:51;;;;;;;3.33;1.80;;;;;;;;;;5129166;27;20053;-65
2024/01/22 09:25:19;;;;;;;3.33;1.98;;;;;;;;;;5129395;27;20043;-64
2024/01/22 09:27:47;;;;;;;3.47;2.33;;;;;;;;;;5129455;27;20692;-64
2024/01/22 09:30:17;;;;;;;3.13;2.22;;;;;;;;;;5133456;27;20051;-65
2024/01/22 09:32:45;;;;;;;5.13;1.77;;;;;;;;;;5131367;27;20739;-66
2024/01/22 09:35:14;;;;;;;6.05;2.22;;;;;;;;;;5129222;27;20039;-68
2024/01/22 09:37:40;;;;;;;4.07;1.60;;;;;;;;;;5129442;27;20047;-65
2024/01/22 09:40:11;;;;;;;6.45;2.22;;;;;;;;;;5128816;27;20051;-64
2024/01/22 09:42:48;;;;;;;3.08;1.52;;;;;;;;;;5129102;27;20130;-65
2024/01/22 09:45:15;;;;;;;4.25;1.45;;;;;;;;;;5117478;27;20155;-64
2024/01/22 09:47:42;;;;;;;3.42;1.98;;;;;;;;;;5128831;27;20457;-66
2024/01/22 09:50:11;;;;;;;3.30;1.52;;;;;;;;;;5128964;27;20039;-66
2024/01/22 09:52:41;;;;;;;6.85;1.42;;;;;;;;;;5129016;27;20054;-66
2024/01/22 09:55:08;;;;;;;2.90;1.73;;;;;;;;;;5111176;27;20047;-65
2024/01/22 09:57:36;;;;;;;2.83;1.48;;;;;;;;;;5130074;27;20058;-65
2024/01/22 10:00:03;;;;;;;3.10;1.95;;;;;;;;;;5128773;27;20067;-64
2024/01/22 10:02:30;;;;;;;4.05;1.30;;;;;;;;;;5128540;27;20416;-64
2024/01/22 10:04:57;;;;;;;3.38;1.85;;;;;;;;;;5128632;27;20043;-66
2024/01/22 10:07:23;;;;;;;5.63;1.55;;;;;;;;;;5127516;27;20054;-65
2024/01/22 10:09:50;;;;;;;4.05;1.70;;;;;;;;;;5128500;27;20059;-67
2024/01/22 10:12:16;;;;;;;2.63;1.33;;;;;;;;;;5129225;27;20558;-65
2024/01/22 10:14:45;;;;;;;3.00;1.40;;;;;;;;;;5110330;27;20162;-65
2024/01/22 10:17:17;;;;;;;2.25;1.40;;;;;;;;;;5128649;27;20039;-66
2024/01/22 10:19:48;;;;;;;2.55;1.35;;;;;;;;;;5128361;28;20051;-67
2024/01/22 10:22:19;;;;;;;2.58;1.48;;;;;;;;;;5128873;28;20043;-66
2024/01/22 10:25:02;;;;;;;4.70;1.60;;;;;;;;;;5128676;28;20051;-65
2024/01/22 10:27:28;;;;;;;2.90;1.38;;;;;;;;;;5114614;28;20046;-66
2024/01/22 10:30:08;;;;;;;4.47;1.88;;;;;;;;;;5126993;28;20514;-65
2024/01/22 10:32:35;;;;;;;8.30;2.08;;;;;;;;;;5125830;28;20068;-66
2024/01/22 10:35:02;;;;;;;2.50;1.38;;;;;;;;;;5128157;28;20048;-66
2024/01/22 10:37:28;;;;;;;2.17;1.10;;;;;;;;;;5128100;28;20046;-67
2024/01/22 10:40:01;;;;;;;2.83;1.30;;;;;;;;;;5122313;28;20055;-69
2024/01/22 10:42:28;;;;;;;9.02;1.13;;;;;;;;;;5121861;28;20196;-66
2024/01/22 10:44:56;;;;;;;2.35;1.48;;;;;;;;;;5127888;28;20108;-68
2024/01/22 10:47:23;;;;;;;2.40;1.10;;;;;;;;;;5110281;28;20043;-67
2024/01/22 10:49:51;;;;;;;3.25;1.25;;;;;;;;;;5127900;28;20614;-66
2024/01/22 10:52:19;;;;;;;2.60;1.30;;;;;;;;;;5128014;28;20051;-68
2024/01/22 10:54:45;;;;;;;2.97;1.48;;;;;;;;;;5110731;28;20104;-69
2024/01/22 10:57:24;;;;;;;2.42;1.42;;;;;;;;;;5128595;28;20402;-72
2024/01/22 10:59:54;;;;;;;3.75;1.60;;;;;;;;;;5129507;28;20472;-65
2024/01/22 11:02:28;;;;;;;2.38;1.23;;;;;;;;;;5129515;28;20051;-69
2024/01/22 11:05:14;;;;;;;2.63;1.35;;;;;;;;;;5129335;28;20050;-69
2024/01/22 11:07:41;;;;;;;2.60;1.20;;;;;;;;;;5123870;28;20689;-68
2024/01/22 11:10:09;;;;;;;5.43;1.13;;;;;;;;;;5108421;28;20070;-65
2024/01/22 11:12:45;;;;;;;2.35;1.50;;;;;;;;;;5107857;28;20047;-67
2024/01/22 11:15:12;;;;;;;3.50;1.58;;;;;;;;;;5107826;28;20085;-66
2024/01/22 11:17:38;;;;;;;2.47;1.13;;;;;;;;;;5114925;28;20050;-66
2024/01/22 11:20:14;;;;;;;3.75;1.73;;;;;;;;;;5131543;27;20056;-67
2024/01/22 11:22:41;;;;;;;2.47;1.23;;;;;;;;;;5113863;27;20047;-65
2024/01/22 11:25:10;;;;;;;3.33;0.90;;;;;;;;;;5132198;27;20134;-67
2024/01/22 11:27:40;;;;;;;2.50;1.40;;;;;;;;;;5131798;27;20051;-66
2024/01/22 11:30:22;;;;;;;2.72;0.95;;;;;;;;;;5131718;27;20043;-66
2024/01/22 11:32:49;;;;;;;2.20;0.70;;;;;;;;;;5131967;27;20455;-67
2024/01/22 11:35:31;;;;;;;1.38;0.90;;;;;;;;;;5131950;27;20111;-67
2024/01/22 11:37:58;;;;;;;1.15;0.80;;;;;;;;;;5113343;27;20066;-66
2024/01/22 11:40:44;;;;;;;4.53;1.45;;;;;;;;;;5131555;27;20170;-66
2024/01/22 11:43:11;;;;;;;2.25;0.90;;;;;;;;;;5131894;27;20491;-66
2024/01/22 11:45:39;;;;;;;2.00;1.13;;;;;;;;;;5130271;27;20055;-66
2024/01/22 11:48:16;;;;;;;1.67;0.77;;;;;;;;;;5131673;27;20071;-66
2024/01/22 11:50:43;;;;;;;1.90;0.88;;;;;;;;;;5126623;27;20069;-66
2024/01/22 11:53:10;;;;;;;1.65;1.10;;;;;;;;;;5110927;28;20074;-65
2024/01/22 11:55:38;;;;;;;2.45;0.90;;;;;;;;;;5110979;28;20093;-66
2024/01/22 11:58:09;;;;;;;5.28;1.17;;;;;;;;;;5109530;28;20093;-67
2024/01/22 12:00:36;;;;;;;3.83;0.75;;;;;;;;;;5110764;28;20113;-66
2024/01/22 12:03:02;;;;;;;4.53;1.17;;;;;;;;;;5110785;28;20050;-68
2024/01/22 12:05:29;;;;;;;2.83;0.95;;;;;;;;;;5110617;28;20055;-70
2024/01/22 12:07:56;;;;;;;2.53;1.00;;;;;;;;;;5110775;28;20100;-68
2024/01/22 12:10:24;;;;;;;1.10;0.80;;;;;;;;;;5110818;28;20439;-68
2024/01/22 12:12:51;;;;;;;1.83;0.80;;;;;;;;;;5115424;27;20047;-68
2024/01/22 12:15:18;;;;;;;3.72;1.48;;;;;;;;;;5131126;27;20384;-67
2024/01/22 12:17:44;;;;;;;1.42;0.70;;;;;;;;;;5130696;27;20078;-64
2024/01/22 12:20:12;;;;;;;2.30;0.98;;;;;;;;;;5131130;27;20095;-66
2024/01/22 12:22:41;;;;;;;1.88;0.90;;;;;;;;;;5131783;27;20043;-63
2024/01/22 12:25:08;;;;;;;1.67;0.80;;;;;;;;;;5114197;27;20137;-65
2024/01/22 12:27:35;;;;;;;2.67;0.73;;;;;;;;;;5113106;27;20053;-66
2024/01/22 12:30:05;;;;;;;1.48;0.80;;;;;;;;;;5111642;28;20051;-65
2024/01/22 12:32:33;;;;;;;2.38;1.05;;;;;;;;;;5130903;27;20071;-65
2024/01/22 12:34:59;;;;;;;3.80;0.73;;;;;;;;;;5131031;27;20543;-68
2024/01/22 12:37:30;;;;;;;1.33;0.70;;;;;;;;;;5130809;27;20039;-66
2024/01/22 12:40:06;;;;;;;2.17;0.90;;;;;;;;;;5112380;27;20050;-64
2024/01/22 12:42:33;;;;;;;1.52;0.90;;;;;;;;;;5130165;27;20520;-65
2024/01/22 12:45:00;;;;;;;1.67;0.73;;;;;;;;;;5130613;27;20053;-66
2024/01/22 12:47:30;;;;;;;2.97;0.93;;;;;;;;;;5130315;27;20070;-64
2024/01/22 12:50:01;;;;;;;2.05;0.70;;;;;;;;;;5127542;27;20263;-65
2024/01/22 12:52:27;;;;;;;2.05;0.95;;;;;;;;;;5113083;27;20039;-65
2024/01/22 12:54:54;;;;;;;1.85;0.82;;;;;;;;;;5130307;27;20495;-65
2024/01/22 12:57:21;;;;;;;3.63;0.90;;;;;;;;;;5130332;27;20585;-64
2024/01/22 12:59:48;;;;;;;0.90;0.73;;;;;;;;;;5129805;27;20057;-70
2024/01/22 13:02:15;;;;;;;0.98;0.60;;;;;;;;;;5129517;27;20068;-65
2024/01/22 13:04:43;;;;;;;1.35;1.10;;;;;;;;;;5130101;27;20051;-65
2024/01/22 13:07:10;;;;;;;2.00;0.80;;;;;;;;;;5129113;27;20050;-65
2024/01/22 13:09:40;;;;;;;3.90;1.02;;;;;;;;;;5129153;27;20054;-64
2024/01/22 13:12:08;;;;;;;1.38;0.70;;;;;;;;;;5129589;27;20062;-63
2024/01/22 13:14:34;;;;;;;2.42;0.90;;;;;;;;;;5129102;27;20074;-64
2024/01/22 13:17:03;;;;;;;3.38;0.82;;;;;;;;;;5111526;27;20414;-64
2024/01/22 13:19:31;;;;;;;2.22;0.68;;;;;;;;;;5129242;27;20051;-64
2024/01/22 13:21:58;;;;;;;2.88;0.52;;;;;;;;;;5111711;27;20126;-62
2024/01/22 13:24:26;;;;;;;2.15;0.85;;;;;;;;;;5129548;27;20092;-63
2024/01/22 13:26:53;;;;;;;2.88;1.17;;;;;;;;;;5130486;27;20418;-63
2024/01/22 13:29:20;;;;;;;3.03;0.98;;;;;;;;;;5130221;27;20047;-69
2024/01/22 13:31:46;;;;;;;2.17;0.95;;;;;;;;;;5129836;27;20047;-68
2024/01/22 13:34:13;;;;;;;2.17;0.95;;;;;;;;;;5107318;28;20140;-68
2024/01/22 13:36:40;;;;;;;1.55;0.82;;;;;;;;;;5108361;28;20122;-66
2024/01/22 13:39:06;;;;;;;2.47;1.05;;;;;;;;;;5108632;28;20044;-68
2024/01/22 13:41:33;;;;;;;1.88;0.90;;;;;;;;;;5106978;28;20123;-68
2024/01/22 13:43:59;;;;;;;3.92;1.55;;;;;;;;;;5108348;28;20055;-68
2024/01/22 13:46:26;;;;;;;1.60;0.70;;;;;;;;;;5107328;28;20051;-69
2024/01/22 13:48:53;;;;;;;6.53;0.77;;;;;;;;;;5108248;28;20039;-71
2024/01/22 13:51:19;;;;;;;2.92;1.23;;;;;;;;;;5111224;28;20047;-69
2024/01/22 13:53:47;;;;;;;1.77;0.80;;;;;;;;;;5107987;28;20075;-69
2024/01/22 13:56:13;;;;;;;2.33;0.70;;;;;;;;;;5108451;28;20055;-69
2024/01/22 13:58:41;;;;;;;5.25;1.15;;;;;;;;;;5108178;28;20125;-68
2024/01/22 14:01:10;;;;;;;5.30;1.35;;;;;;;;;;5106962;28;20055;-69
2024/01/22 14:03:38;;;;;;;2.38;0.90;;;;;;;;;;5107880;28;20163;-67
2024/01/22 14:06:08;;;;;;;5.35;1.50;;;;;;;;;;5107972;28;20685;-66
2024/01/22 14:08:35;;;;;;;4.55;1.00;;;;;;;;;;5108122;28;20108;-69
2024/01/22 14:11:02;;;;;;;8.75;2.30;;;;;;;;;;5106123;28;20574;-70
2024/01/22 14:13:28;;;;;;;2.42;1.15;;;;;;;;;;5107052;28;20082;-69
2024/01/22 14:15:55;;;;;;;4.25;1.20;;;;;;;;;;5106958;28;20059;-68
2024/01/22 14:18:23;;;;;;;2.95;1.58;;;;;;;;;;5106504;28;20040;-67
2024/01/22 14:20:49;;;;;;;2.65;1.17;;;;;;;;;;5106728;28;20043;-70
2024/01/22 14:23:17;;;;;;;2.15;1.13;;;;;;;;;;5106409;28;20120;-69
2024/01/22 14:25:43;;;;;;;4.38;1.05;;;;;;;;;;5106943;28;20051;-67
2024/01/22 14:28:11;;;;;;;6.57;1.52;;;;;;;;;;5108451;28;20151;-70
2024/01/22 14:30:37;;;;;;;3.40;0.88;;;;;;;;;;5108238;28;20059;-70
2024/01/22 14:33:04;;;;;;;2.65;0.90;;;;;;;;;;5112086;28;20403;-70
2024/01/22 14:35:31;;;;;;;3.92;1.40;;;;;;;;;;5128617;28;20059;-69
2024/01/22 14:37:59;;;;;;;4.25;0.70;;;;;;;;;;5128679;28;20039;-69
2024/01/22 14:40:25;;;;;;;2.28;0.98;;;;;;;;;;5128606;28;20053;-69
2024/01/22 14:42:52;;;;;;;3.92;1.20;;;;;;;;;;5128494;28;20047;-69